createdAt,value
2022-10-22T00:00:42.600Z,0.82
2022-10-22T00:01:44.054Z,0.68
2022-10-22T00:02:45.562Z,0.75
2022-10-22T00:03:47.152Z,1.00
2022-10-22T00:04:49.936Z,0.60
2022-10-22T00:05:51.353Z,0.70
2022-10-22T00:06:52.816Z,0.90
2022-10-22T00:07:54.258Z,0.55
2022-10-22T00:08:56.069Z,0.80
2022-10-22T00:09:57.626Z,0.93
2022-10-22T00:10:59.141Z,0.90
2022-10-22T00:12:00.571Z,0.70
2022-10-22T00:13:02.037Z,0.60
2022-10-22T00:14:03.622Z,0.77
2022-10-22T00:15:07.696Z,0.55
2022-10-22T00:16:09.618Z,0.70
2022-10-22T00:17:11.773Z,0.65
2022-10-22T00:18:13.336Z,0.93
2022-10-22T00:19:14.791Z,0.85
2022-10-22T00:20:16.845Z,0.70
2022-10-22T00:21:18.442Z,0.70
2022-10-22T00:22:19.884Z,0.52
2022-10-22T00:23:21.296Z,0.63
2022-10-22T00:24:22.691Z,0.80
2022-10-22T00:25:24.200Z,0.90
2022-10-22T00:26:25.659Z,0.60
2022-10-22T00:27:27.092Z,0.75
2022-10-22T00:28:28.539Z,0.60
2022-10-22T00:29:30.067Z,0.50
2022-10-22T00:30:32.840Z,0.50
2022-10-22T00:31:34.324Z,0.50
2022-10-22T00:32:35.781Z,0.60
2022-10-22T00:33:37.264Z,0.50
2022-10-22T00:34:38.819Z,0.40
2022-10-22T00:35:40.353Z,0.40
2022-10-22T00:36:41.803Z,0.60
2022-10-22T00:37:43.231Z,0.52
2022-10-22T00:38:44.643Z,0.60
2022-10-22T00:39:46.093Z,0.43
2022-10-22T00:40:48.046Z,0.68
2022-10-22T00:41:51.300Z,0.50
2022-10-22T00:42:52.791Z,0.47
2022-10-22T00:43:56.568Z,0.40
2022-10-22T00:45:03.095Z,0.60
2022-10-22T00:46:05.955Z,0.60
2022-10-22T00:47:07.463Z,0.57
2022-10-22T00:48:10.961Z,0.50
2022-10-22T00:49:12.605Z,0.50
2022-10-22T00:50:17.431Z,0.50
2022-10-22T00:51:21.645Z,0.40
2022-10-22T00:52:23.287Z,0.60
2022-10-22T00:53:29.804Z,0.57
2022-10-22T00:54:31.293Z,0.60
2022-10-22T00:55:33.625Z,0.38
2022-10-22T00:56:35.319Z,0.40
2022-10-22T00:57:36.993Z,0.57
2022-10-22T00:58:43.559Z,0.85
2022-10-22T00:59:45.185Z,0.57
2022-10-22T01:00:47.042Z,0.75
2022-10-22T01:01:49.893Z,0.40
2022-10-22T01:02:53.338Z,0.40
2022-10-22T01:03:54.807Z,0.50
2022-10-22T01:04:56.210Z,0.50
2022-10-22T01:05:59.583Z,0.60
2022-10-22T01:07:01.185Z,0.30
2022-10-22T01:08:02.978Z,0.40
2022-10-22T01:09:16.226Z,0.40
2022-10-22T01:10:35.192Z,0.68
2022-10-22T01:11:50.982Z,0.60
2022-10-22T01:13:01.117Z,0.73
2022-10-22T01:14:13.902Z,0.32
2022-10-22T01:15:24.614Z,0.50
2022-10-22T01:16:33.932Z,0.60
2022-10-22T01:17:43.503Z,0.50
2022-10-22T01:18:51.503Z,0.45
2022-10-22T01:20:03.077Z,0.77
2022-10-22T01:21:13.948Z,0.40
2022-10-22T01:22:22.109Z,0.60
2022-10-22T01:23:57.954Z,0.45
2022-10-22T01:25:08.040Z,0.40
2022-10-22T01:26:21.702Z,0.85
2022-10-22T01:27:33.683Z,0.50
2022-10-22T01:28:57.028Z,0.70
2022-10-22T01:30:02.299Z,0.70
2022-10-22T01:31:05.825Z,0.38
2022-10-22T01:32:10.965Z,0.50
2022-10-22T01:33:17.292Z,0.70
2022-10-22T01:34:19.807Z,0.60
2022-10-22T01:35:26.468Z,0.50
2022-10-22T01:36:31.175Z,0.50
2022-10-22T01:37:36.301Z,0.45
2022-10-22T01:38:39.519Z,0.50
2022-10-22T01:39:43.582Z,0.70
2022-10-22T01:40:46.474Z,0.70
2022-10-22T01:41:48.031Z,0.60
2022-10-22T01:42:57.612Z,0.50
2022-10-22T01:44:00.584Z,0.60
2022-10-22T01:45:02.005Z,0.70
2022-10-22T01:46:05.873Z,0.60
2022-10-22T01:47:17.148Z,0.63
2022-10-22T01:48:35.715Z,0.70
2022-10-22T01:49:58.399Z,0.70
2022-10-22T01:51:11.753Z,0.73
2022-10-22T01:52:21.402Z,0.70
2022-10-22T01:53:32.965Z,0.82
2022-10-22T01:54:41.707Z,0.90
2022-10-22T01:55:55.233Z,0.80
2022-10-22T01:57:07.662Z,0.85
2022-10-22T01:58:19.823Z,0.70
2022-10-22T01:59:33.275Z,0.90
2022-10-22T02:00:39.042Z,0.70
2022-10-22T02:01:46.206Z,0.82
2022-10-22T02:02:52.537Z,0.68
2022-10-22T02:04:01.368Z,0.82
2022-10-22T02:05:07.808Z,1.10
2022-10-22T02:06:14.359Z,0.60
2022-10-22T02:07:21.128Z,0.90
2022-10-22T02:08:25.665Z,0.98
2022-10-22T02:09:29.306Z,1.00
2022-10-22T02:10:31.015Z,1.00
2022-10-22T02:11:32.569Z,0.70
2022-10-22T02:12:35.263Z,0.90
2022-10-22T02:13:44.323Z,0.93
2022-10-22T02:14:48.771Z,0.90
2022-10-22T02:15:52.325Z,0.85
2022-10-22T02:16:54.411Z,1.00
2022-10-22T02:17:59.211Z,0.90
2022-10-22T02:19:05.678Z,0.80
2022-10-22T02:20:13.256Z,0.85
2022-10-22T02:21:15.924Z,0.73
2022-10-22T02:22:17.840Z,0.73
2022-10-22T02:23:20.684Z,0.73
2022-10-22T02:24:22.953Z,0.90
2022-10-22T02:25:27.489Z,0.70
2022-10-22T02:26:34.511Z,0.77
2022-10-22T02:27:43.243Z,0.80
2022-10-22T02:28:51.898Z,1.13
2022-10-22T02:30:01.381Z,0.60
2022-10-22T02:31:10.525Z,1.00
2022-10-22T02:32:17.952Z,0.70
2022-10-22T02:33:22.635Z,0.80
2022-10-22T02:34:28.170Z,0.80
2022-10-22T02:35:31.103Z,0.90
2022-10-22T02:36:32.901Z,1.10
2022-10-22T02:37:35.089Z,0.90
2022-10-22T02:38:37.144Z,0.88
2022-10-22T02:39:39.321Z,0.90
2022-10-22T02:40:41.399Z,0.77
2022-10-22T02:41:43.201Z,0.73
2022-10-22T02:42:47.527Z,0.65
2022-10-22T02:43:53.187Z,0.80
2022-10-22T02:44:55.976Z,0.80
2022-10-22T02:45:57.469Z,0.60
2022-10-22T02:46:59.535Z,0.90
2022-10-22T02:48:01.595Z,0.85
2022-10-22T02:49:03.322Z,0.85
2022-10-22T02:50:09.436Z,0.90
2022-10-22T02:51:12.275Z,0.90
2022-10-22T02:52:13.808Z,0.82
2022-10-22T02:53:15.259Z,0.80
2022-10-22T02:54:16.742Z,0.90
2022-10-22T02:55:18.334Z,0.90
2022-10-22T02:56:19.753Z,0.98
2022-10-22T02:58:27.560Z,1.02
2022-10-22T02:59:29.001Z,1.08
2022-10-22T03:00:31.804Z,0.85
2022-10-22T03:01:33.350Z,0.90
2022-10-22T03:02:34.953Z,1.10
2022-10-22T03:03:36.420Z,1.00
2022-10-22T03:04:37.888Z,1.08
2022-10-22T03:05:39.338Z,1.08
2022-10-22T03:06:41.203Z,1.15
2022-10-22T03:07:42.871Z,0.90
2022-10-22T03:08:44.542Z,1.17
2022-10-22T03:09:45.988Z,0.90
2022-10-22T03:10:47.429Z,1.00
2022-10-22T03:11:49.008Z,1.05
2022-10-22T03:12:50.430Z,1.10
2022-10-22T03:13:51.899Z,1.48
2022-10-22T03:14:53.340Z,1.23
2022-10-22T03:15:56.144Z,1.27
2022-10-22T03:16:57.595Z,2.05
2022-10-22T03:17:59.042Z,2.70
2022-10-22T03:19:00.510Z,1.73
2022-10-22T03:20:01.998Z,2.22
2022-10-22T03:21:09.714Z,2.38
2022-10-22T03:22:15.504Z,3.25
2022-10-22T03:23:19.771Z,3.60
2022-10-22T03:24:25.710Z,4.70
2022-10-22T03:25:28.178Z,4.25
2022-10-22T03:26:29.766Z,4.13
2022-10-22T03:27:31.266Z,4.75
2022-10-22T03:28:33.996Z,4.50
2022-10-22T03:29:38.146Z,4.88
2022-10-22T03:30:39.583Z,4.68
2022-10-22T03:31:42.802Z,4.60
2022-10-22T03:32:44.247Z,5.47
2022-10-22T03:33:45.677Z,4.88
2022-10-22T03:34:47.234Z,5.10
2022-10-22T03:35:48.707Z,5.22
2022-10-22T03:36:51.296Z,5.03
2022-10-22T03:37:53.531Z,4.43
2022-10-22T03:38:55.168Z,4.68
2022-10-22T03:39:56.722Z,4.15
2022-10-22T03:40:58.564Z,4.20
2022-10-22T03:42:00.851Z,4.20
2022-10-22T03:43:02.272Z,4.20
2022-10-22T03:44:05.006Z,4.72
2022-10-22T03:45:07.639Z,4.22
2022-10-22T03:46:09.076Z,4.50
2022-10-22T03:47:11.979Z,4.18
2022-10-22T03:48:13.459Z,3.75
2022-10-22T03:49:14.889Z,3.50
2022-10-22T03:50:16.570Z,4.05
2022-10-22T03:51:18.017Z,3.35
2022-10-22T03:52:19.459Z,3.15
2022-10-22T03:53:20.911Z,3.22
2022-10-22T03:54:22.364Z,2.95
2022-10-22T03:55:23.908Z,2.88
2022-10-22T03:56:25.363Z,2.85
2022-10-22T03:57:26.779Z,3.60
2022-10-22T03:58:28.294Z,3.58
2022-10-22T03:59:34.503Z,2.63
2022-10-22T04:00:36.272Z,3.10
2022-10-22T04:01:37.723Z,2.92
2022-10-22T04:02:40.534Z,2.88
2022-10-22T04:03:41.992Z,2.90
2022-10-22T04:04:43.455Z,2.70
2022-10-22T04:05:45.030Z,2.95
2022-10-22T04:06:46.460Z,3.17
2022-10-22T04:07:47.917Z,3.13
2022-10-22T04:08:49.704Z,2.70
2022-10-22T04:09:51.209Z,2.70
2022-10-22T04:10:52.674Z,2.67
2022-10-22T04:11:54.130Z,2.13
2022-10-22T04:12:55.588Z,2.10
2022-10-22T04:13:56.994Z,1.90
2022-10-22T04:14:58.429Z,1.73
2022-10-22T04:16:07.350Z,2.00
2022-10-22T04:17:08.766Z,1.77
2022-10-22T04:18:11.569Z,1.98
2022-10-22T04:19:13.459Z,1.80
2022-10-22T04:20:14.928Z,2.00
2022-10-22T04:21:18.509Z,2.17
2022-10-22T04:22:19.935Z,2.03
2022-10-22T04:23:21.842Z,1.70
2022-10-22T04:24:23.265Z,1.80
2022-10-22T04:25:24.717Z,2.05
2022-10-22T04:26:26.272Z,1.90
2022-10-22T04:27:30.357Z,2.00
2022-10-22T04:28:31.850Z,2.00
2022-10-22T04:29:33.309Z,2.00
2022-10-22T04:30:34.773Z,2.30
2022-10-22T04:31:36.269Z,1.92
2022-10-22T04:32:37.750Z,2.17
2022-10-22T04:33:41.234Z,1.80
2022-10-22T04:34:42.674Z,1.80
2022-10-22T04:35:44.138Z,1.88
2022-10-22T04:36:45.585Z,1.67
2022-10-22T04:37:46.996Z,1.80
2022-10-22T04:38:52.967Z,1.50
2022-10-22T04:39:54.782Z,1.50
2022-10-22T04:40:57.896Z,1.67
2022-10-22T04:41:59.322Z,1.90
2022-10-22T04:43:00.735Z,1.80
2022-10-22T04:44:02.409Z,1.80
2022-10-22T04:45:04.472Z,1.50
2022-10-22T04:46:05.965Z,1.70
2022-10-22T04:47:07.457Z,1.75
2022-10-22T04:48:08.911Z,2.00
2022-10-22T04:49:11.735Z,1.75
2022-10-22T04:50:13.246Z,2.10
2022-10-22T04:51:17.164Z,1.90
2022-10-22T04:52:18.641Z,1.88
2022-10-22T04:53:20.053Z,1.90
2022-10-22T04:54:22.229Z,2.22
2022-10-22T04:55:23.717Z,2.17
2022-10-22T04:56:27.771Z,2.13
2022-10-22T04:57:29.854Z,2.22
2022-10-22T04:58:31.320Z,2.13
2022-10-22T04:59:32.759Z,2.03
2022-10-22T05:00:34.205Z,2.47
2022-10-22T05:01:40.175Z,2.53
2022-10-22T05:02:49.165Z,2.58
2022-10-22T05:03:52.816Z,2.70
2022-10-22T05:04:55.638Z,2.03
2022-10-22T05:06:00.611Z,2.17
2022-10-22T05:07:02.060Z,2.35
2022-10-22T05:08:03.684Z,2.45
2022-10-22T05:09:08.321Z,2.75
2022-10-22T05:10:10.068Z,2.58
2022-10-22T05:11:12.902Z,2.80
2022-10-22T05:12:14.317Z,3.03
2022-10-22T05:13:15.774Z,2.92
2022-10-22T05:14:19.648Z,2.80
2022-10-22T05:15:21.122Z,3.03
2022-10-22T05:16:23.017Z,3.30
2022-10-22T05:17:24.516Z,3.25
2022-10-22T05:18:25.951Z,3.45
2022-10-22T05:19:29.594Z,3.38
2022-10-22T05:20:32.356Z,3.30
2022-10-22T05:21:34.676Z,3.33
2022-10-22T05:22:36.132Z,2.88
2022-10-22T05:23:38.045Z,3.20
2022-10-22T05:24:39.481Z,3.50
2022-10-22T05:25:40.897Z,3.40
2022-10-22T05:26:42.623Z,3.28
2022-10-22T05:27:44.182Z,3.08
2022-10-22T05:28:46.507Z,3.05
2022-10-22T05:29:48.241Z,3.00
2022-10-22T05:30:53.623Z,3.35
2022-10-22T05:31:55.282Z,3.03
2022-10-22T05:32:56.746Z,3.50
2022-10-22T05:33:58.258Z,3.40
2022-10-22T05:34:59.739Z,3.70
2022-10-22T05:36:04.285Z,3.90
2022-10-22T05:37:05.734Z,3.83
2022-10-22T05:38:07.194Z,4.03
2022-10-22T05:39:08.819Z,5.10
2022-10-22T05:40:19.515Z,4.90
2022-10-22T05:41:28.589Z,5.20
2022-10-22T05:42:31.757Z,5.93
2022-10-22T05:43:34.221Z,5.22
2022-10-22T05:44:35.646Z,5.63
2022-10-22T05:45:37.335Z,6.15
2022-10-22T05:46:38.777Z,6.88
2022-10-22T05:47:40.210Z,6.35
2022-10-22T05:48:41.740Z,6.78
2022-10-22T05:49:43.161Z,6.30
2022-10-22T05:50:44.630Z,6.60
2022-10-22T05:51:47.390Z,6.97
2022-10-22T05:52:48.817Z,7.38
2022-10-22T05:53:53.168Z,6.63
2022-10-22T05:54:54.647Z,6.13
2022-10-22T05:55:56.116Z,6.65
2022-10-22T05:56:57.536Z,6.65
2022-10-22T05:57:58.952Z,6.65
2022-10-22T06:00:03.448Z,6.82
2022-10-22T06:01:07.208Z,6.25
2022-10-22T06:02:09.450Z,5.80
2022-10-22T06:03:10.926Z,5.72
2022-10-22T06:04:13.406Z,5.07
2022-10-22T06:05:14.862Z,4.60
2022-10-22T06:06:20.485Z,4.55
2022-10-22T06:07:23.415Z,4.13
2022-10-22T06:08:24.979Z,3.55
2022-10-22T06:09:29.083Z,3.58
2022-10-22T06:10:31.259Z,3.47
2022-10-22T06:11:35.118Z,3.10
2022-10-22T06:12:36.906Z,2.88
2022-10-22T06:13:38.320Z,2.40
2022-10-22T06:14:39.724Z,2.25
2022-10-22T06:15:41.191Z,2.30
2022-10-22T06:16:42.733Z,2.10
2022-10-22T06:17:44.915Z,1.90
2022-10-22T06:18:46.345Z,1.90
2022-10-22T06:19:48.196Z,1.80
2022-10-22T06:20:49.889Z,1.70
2022-10-22T06:21:51.314Z,1.90
2022-10-22T06:22:54.112Z,1.90
2022-10-22T06:23:56.169Z,1.83
2022-10-22T06:24:57.646Z,1.70
2022-10-22T06:26:00.261Z,1.60
2022-10-22T06:27:01.714Z,1.67
2022-10-22T06:28:03.393Z,1.67
2022-10-22T06:29:05.312Z,1.40
2022-10-22T06:30:08.101Z,1.60
2022-10-22T06:31:10.053Z,1.55
2022-10-22T06:32:11.525Z,1.50
2022-10-22T06:33:12.949Z,1.60
2022-10-22T06:34:15.603Z,1.60
2022-10-22T06:35:17.236Z,1.60
2022-10-22T06:36:20.575Z,1.70
2022-10-22T06:37:22.011Z,1.77
2022-10-22T06:38:24.736Z,1.20
2022-10-22T06:39:26.188Z,1.20
2022-10-22T06:40:27.595Z,1.30
2022-10-22T06:41:29.785Z,1.45
2022-10-22T06:42:31.406Z,1.13
2022-10-22T06:43:32.933Z,1.35
2022-10-22T06:44:34.685Z,1.73
2022-10-22T06:45:36.174Z,1.92
2022-10-22T06:46:40.082Z,1.98
2022-10-22T06:47:44.254Z,2.45
2022-10-22T06:48:49.246Z,2.78
2022-10-22T06:49:50.687Z,2.40
2022-10-22T06:50:52.102Z,3.10
2022-10-22T06:51:54.236Z,2.70
2022-10-22T06:52:55.666Z,2.80
2022-10-22T06:53:58.990Z,2.58
2022-10-22T06:55:00.431Z,2.67
2022-10-22T06:56:05.096Z,3.00
2022-10-22T06:57:06.497Z,3.03
2022-10-22T06:58:07.950Z,3.17
2022-10-22T06:59:09.787Z,2.75
2022-10-22T07:00:12.550Z,2.40
2022-10-22T07:01:15.792Z,3.05
2022-10-22T07:02:17.242Z,3.13
2022-10-22T07:03:18.640Z,3.45
2022-10-22T07:04:20.052Z,3.50
2022-10-22T07:05:21.629Z,6.32
2022-10-22T07:06:24.239Z,3.85
2022-10-22T07:07:25.786Z,3.25
2022-10-22T07:08:27.231Z,3.22
2022-10-22T07:09:30.041Z,3.53
2022-10-22T07:10:31.578Z,3.47
2022-10-22T07:11:38.746Z,3.80
2022-10-22T07:12:40.393Z,4.00
2022-10-22T07:13:42.361Z,4.30
2022-10-22T07:14:43.861Z,3.70
2022-10-22T07:15:45.294Z,4.00
2022-10-22T07:16:46.755Z,3.58
2022-10-22T07:17:48.287Z,3.33
2022-10-22T07:18:50.290Z,3.03
2022-10-22T07:19:52.096Z,3.30
2022-10-22T07:20:53.688Z,2.80
2022-10-22T07:21:55.127Z,2.60
2022-10-22T07:22:56.561Z,2.83
2022-10-22T07:23:58.185Z,2.20
2022-10-22T07:25:05.204Z,2.20
2022-10-22T07:26:09.010Z,2.40
2022-10-22T07:27:11.748Z,2.58
2022-10-22T07:28:13.397Z,3.25
2022-10-22T07:29:15.492Z,3.00
2022-10-22T07:30:16.956Z,4.53
2022-10-22T07:31:18.774Z,3.22
2022-10-22T07:32:23.714Z,3.47
2022-10-22T07:33:25.875Z,3.08
2022-10-22T07:34:27.331Z,2.83
2022-10-22T07:35:28.925Z,2.28
2022-10-22T07:36:30.408Z,2.15
2022-10-22T07:37:31.866Z,2.45
2022-10-22T07:38:33.941Z,2.42
2022-10-22T07:39:35.579Z,2.08
2022-10-22T07:40:38.478Z,2.05
2022-10-22T07:41:39.936Z,1.60
2022-10-22T07:42:41.384Z,1.65
2022-10-22T07:43:42.976Z,1.95
2022-10-22T07:44:44.412Z,3.10
2022-10-22T07:45:45.926Z,3.20
2022-10-22T07:46:48.915Z,2.80
2022-10-22T07:47:50.720Z,3.63
2022-10-22T07:48:52.255Z,4.05
2022-10-22T07:49:53.661Z,3.03
2022-10-22T07:50:55.115Z,3.10
2022-10-22T07:51:56.668Z,3.17
2022-10-22T07:52:58.442Z,2.10
2022-10-22T07:54:00.030Z,2.28
2022-10-22T07:55:01.542Z,2.20
2022-10-22T07:56:04.773Z,2.00
2022-10-22T07:57:06.232Z,2.25
2022-10-22T07:58:07.695Z,2.10
2022-10-22T07:59:09.163Z,3.03
2022-10-22T08:00:11.586Z,3.15
2022-10-22T08:01:13.071Z,2.80
2022-10-22T08:02:14.518Z,2.25
2022-10-22T08:03:16.978Z,2.47
2022-10-22T08:04:18.415Z,3.08
2022-10-22T08:05:19.894Z,3.00
2022-10-22T08:06:21.340Z,2.85
2022-10-22T08:07:23.256Z,2.55
2022-10-22T08:08:28.351Z,3.60
2022-10-22T08:09:32.467Z,2.50
2022-10-22T08:10:34.001Z,2.78
2022-10-22T08:11:36.788Z,2.80
2022-10-22T08:12:38.985Z,2.60
2022-10-22T08:13:45.028Z,2.58
2022-10-22T08:14:47.287Z,2.90
2022-10-22T08:15:49.754Z,7.00
2022-10-22T08:16:52.912Z,18.73
2022-10-22T08:17:54.493Z,10.95
2022-10-22T08:18:55.900Z,3.00
2022-10-22T08:19:57.353Z,3.10
2022-10-22T08:20:58.883Z,2.95
2022-10-22T08:22:00.301Z,3.42
2022-10-22T08:23:01.928Z,3.10
2022-10-22T08:24:03.555Z,3.22
2022-10-22T08:25:06.100Z,2.83
2022-10-22T08:26:07.574Z,3.17
2022-10-22T08:27:10.508Z,3.03
2022-10-22T08:28:11.959Z,2.83
2022-10-22T08:29:13.456Z,2.95
2022-10-22T08:30:14.950Z,3.25
2022-10-22T08:31:16.404Z,3.00
2022-10-22T08:32:17.932Z,2.67
2022-10-22T08:33:19.439Z,3.15
2022-10-22T08:34:21.000Z,3.22
2022-10-22T08:35:22.859Z,2.97
2022-10-22T08:36:24.343Z,2.38
2022-10-22T08:37:25.822Z,2.60
2022-10-22T08:38:27.265Z,2.60
2022-10-22T08:39:28.775Z,2.58
2022-10-22T08:40:33.247Z,2.90
2022-10-22T08:41:42.217Z,3.28
2022-10-22T08:43:06.311Z,2.90
2022-10-22T08:44:41.484Z,2.90
2022-10-22T08:45:52.887Z,2.78
2022-10-22T08:48:11.331Z,7.28
2022-10-22T08:49:18.941Z,5.18
2022-10-22T08:50:26.802Z,2.75
2022-10-22T08:51:34.209Z,2.60
2022-10-22T08:52:40.413Z,3.08
2022-10-22T08:53:52.293Z,2.70
2022-10-22T08:54:55.771Z,2.60
2022-10-22T08:55:57.309Z,2.47
2022-10-22T08:57:22.568Z,2.20
2022-10-22T08:58:35.599Z,2.08
2022-10-22T08:59:44.340Z,2.20
2022-10-22T09:00:52.214Z,1.92
2022-10-22T09:01:54.419Z,1.92
2022-10-22T09:03:14.907Z,2.25
2022-10-22T09:04:21.776Z,2.30
2022-10-22T09:05:38.415Z,2.10
2022-10-22T09:06:41.772Z,2.28
2022-10-22T09:07:44.120Z,2.40
2022-10-22T09:08:47.439Z,2.30
2022-10-22T09:09:53.926Z,2.15
2022-10-22T09:11:06.658Z,2.47
2022-10-22T09:12:19.207Z,2.60
2022-10-22T09:13:24.890Z,2.20
2022-10-22T09:14:26.810Z,2.60
2022-10-22T09:15:28.339Z,2.58
2022-10-22T09:16:36.632Z,2.35
2022-10-22T09:17:45.519Z,2.15
2022-10-22T09:18:59.224Z,2.83
2022-10-22T09:20:09.272Z,3.28
2022-10-22T09:21:23.062Z,2.25
2022-10-22T09:23:49.780Z,2.13
2022-10-22T09:24:58.554Z,2.13
2022-10-22T09:26:00.322Z,2.08
2022-10-22T09:27:09.809Z,2.00
2022-10-22T09:28:11.395Z,1.95
2022-10-22T09:29:19.477Z,1.80
2022-10-22T09:30:22.946Z,2.40
2022-10-22T09:31:30.050Z,2.50
2022-10-22T09:32:32.273Z,10.50
2022-10-22T09:33:33.868Z,7.95
2022-10-22T09:34:35.397Z,6.25
2022-10-22T09:35:46.184Z,3.97
2022-10-22T09:36:47.684Z,1.67
2022-10-22T09:37:51.184Z,1.90
2022-10-22T09:38:53.336Z,2.03
2022-10-22T09:39:56.565Z,1.75
2022-10-22T09:41:01.130Z,1.98
2022-10-22T09:42:02.649Z,2.17
2022-10-22T09:43:04.099Z,2.08
2022-10-22T09:44:07.449Z,2.10
2022-10-22T09:45:18.319Z,1.85
2022-10-22T09:46:21.923Z,2.55
2022-10-22T09:47:42.686Z,1.85
2022-10-22T09:48:50.216Z,2.10
2022-10-22T09:50:05.295Z,1.98
2022-10-22T09:51:14.900Z,1.98
2022-10-22T09:52:25.864Z,1.77
2022-10-22T09:53:30.681Z,1.80
2022-10-22T09:54:41.405Z,1.70
2022-10-22T09:55:43.506Z,1.50
2022-10-22T09:56:50.988Z,1.42
2022-10-22T09:57:57.898Z,1.40
2022-10-22T09:58:59.326Z,2.70
2022-10-22T10:00:00.802Z,4.35
2022-10-22T10:01:03.655Z,2.20
2022-10-22T10:02:20.413Z,1.60
2022-10-22T10:03:33.866Z,1.67
2022-10-22T10:04:40.142Z,2.08
2022-10-22T10:05:41.631Z,1.50
2022-10-22T10:06:44.665Z,1.73
2022-10-22T10:07:46.204Z,1.50
2022-10-22T10:08:48.468Z,1.50
2022-10-22T10:09:50.892Z,1.92
2022-10-22T10:10:56.441Z,1.60
2022-10-22T10:12:06.708Z,1.60
2022-10-22T10:13:43.380Z,1.60
2022-10-22T10:14:53.953Z,1.48
2022-10-22T10:16:01.654Z,1.83
2022-10-22T10:17:11.893Z,1.50
2022-10-22T10:18:22.845Z,1.90
2022-10-22T10:19:43.147Z,1.63
2022-10-22T10:20:51.723Z,1.70
2022-10-22T10:22:01.340Z,2.15
2022-10-22T10:23:10.897Z,1.73
2022-10-22T10:24:22.449Z,1.60
2022-10-22T10:25:37.077Z,1.88
2022-10-22T10:26:44.627Z,1.60
2022-10-22T10:27:54.082Z,1.80
2022-10-22T10:29:06.495Z,1.70
2022-10-22T10:30:14.491Z,1.52
2022-10-22T10:31:27.548Z,1.70
2022-10-22T10:32:47.840Z,1.70
2022-10-22T10:33:58.800Z,2.97
2022-10-22T10:35:15.132Z,1.67
2022-10-22T10:36:25.517Z,1.55
2022-10-22T10:37:30.663Z,1.70
2022-10-22T10:38:39.216Z,1.40
2022-10-22T10:39:54.432Z,1.30
2022-10-22T10:41:03.989Z,1.70
2022-10-22T10:42:15.588Z,3.42
2022-10-22T10:43:22.770Z,1.60
2022-10-22T10:44:53.329Z,1.40
2022-10-22T10:46:02.567Z,1.38
2022-10-22T10:47:16.710Z,1.40
2022-10-22T10:48:32.763Z,1.38
2022-10-22T10:49:35.983Z,1.67
2022-10-22T10:50:50.112Z,1.50
2022-10-22T10:51:57.272Z,1.80
2022-10-22T10:53:05.073Z,1.80
2022-10-22T10:54:25.698Z,1.80
2022-10-22T10:55:32.726Z,6.05
2022-10-22T10:56:39.938Z,1.52
2022-10-22T10:57:50.542Z,6.70
2022-10-22T10:59:01.729Z,2.13
2022-10-22T11:00:09.913Z,1.42
2022-10-22T11:01:19.697Z,2.10
2022-10-22T11:02:45.620Z,1.52
2022-10-22T11:04:04.727Z,2.10
2022-10-22T11:05:18.205Z,2.00
2022-10-22T11:06:23.155Z,1.60
2022-10-22T11:07:34.543Z,1.50
2022-10-22T11:08:40.369Z,1.75
2022-10-22T11:09:48.047Z,1.70
2022-10-22T11:10:54.662Z,1.70
2022-10-22T11:12:01.333Z,1.90
2022-10-22T11:13:11.436Z,1.83
2022-10-22T11:14:18.421Z,2.92
2022-10-22T11:15:27.424Z,2.65
2022-10-22T11:16:38.194Z,1.98
2022-10-22T11:17:47.617Z,1.52
2022-10-22T11:19:07.101Z,1.50
2022-10-22T11:20:17.207Z,1.58
2022-10-22T11:21:24.643Z,1.70
2022-10-22T11:22:31.852Z,1.50
2022-10-22T11:23:40.552Z,1.60
2022-10-22T11:24:48.870Z,1.60
2022-10-22T11:25:50.886Z,1.20
2022-10-22T11:26:57.324Z,2.42
2022-10-22T11:28:09.122Z,1.95
2022-10-22T11:29:17.477Z,1.30
2022-10-22T11:30:21.082Z,1.73
2022-10-22T11:31:23.825Z,1.90
2022-10-22T11:32:27.403Z,1.40
2022-10-22T11:33:36.367Z,1.55
2022-10-22T11:34:45.210Z,1.70
2022-10-22T11:35:48.397Z,1.63
2022-10-22T11:36:51.833Z,1.42
2022-10-22T11:37:55.752Z,1.70
2022-10-22T11:38:57.293Z,1.52
2022-10-22T11:40:03.346Z,1.15
2022-10-22T11:41:09.581Z,1.50
2022-10-22T11:42:18.106Z,1.45
2022-10-22T11:43:32.532Z,1.33
2022-10-22T11:44:46.180Z,1.60
2022-10-22T11:45:54.490Z,1.50
2022-10-22T11:46:59.748Z,1.83
2022-10-22T11:48:14.647Z,1.85
2022-10-22T11:49:21.921Z,1.75
2022-10-22T11:50:26.737Z,1.50
2022-10-22T11:51:33.313Z,1.70
2022-10-22T11:52:41.265Z,1.70
2022-10-22T11:53:42.690Z,1.60
2022-10-22T11:54:44.800Z,1.80
2022-10-22T11:55:48.185Z,2.85
2022-10-22T11:56:52.844Z,1.40
2022-10-22T11:57:58.851Z,1.65
2022-10-22T11:59:00.280Z,1.65
2022-10-22T12:00:09.578Z,1.77
2022-10-22T12:01:23.346Z,1.50
2022-10-22T12:02:41.618Z,1.20
2022-10-22T12:03:47.619Z,1.38
2022-10-22T12:04:49.185Z,1.33
2022-10-22T12:06:16.212Z,1.35
2022-10-22T12:07:32.979Z,0.90
2022-10-22T12:08:38.356Z,1.27
2022-10-22T12:09:40.588Z,1.20
2022-10-22T12:10:55.497Z,1.30
2022-10-22T12:12:04.618Z,1.27
2022-10-22T12:13:13.321Z,1.23
2022-10-22T12:14:19.691Z,1.40
2022-10-22T12:15:25.581Z,1.40
2022-10-22T12:16:37.871Z,1.25
2022-10-22T12:17:51.217Z,1.10
2022-10-22T12:19:01.693Z,1.20
2022-10-22T12:20:11.395Z,1.30
2022-10-22T12:21:15.891Z,1.52
2022-10-22T12:22:21.024Z,1.40
2022-10-22T12:23:34.026Z,1.23
2022-10-22T12:24:38.028Z,1.33
2022-10-22T12:25:39.630Z,1.00
2022-10-22T12:26:41.090Z,1.20
2022-10-22T12:27:42.785Z,1.83
2022-10-22T12:28:44.433Z,1.38
2022-10-22T12:29:45.963Z,1.40
2022-10-22T12:30:47.477Z,1.77
2022-10-22T12:31:49.310Z,1.10
2022-10-22T12:32:52.903Z,1.30
2022-10-22T12:33:58.067Z,1.60
2022-10-22T12:35:05.360Z,1.40
2022-10-22T12:36:07.176Z,1.33
2022-10-22T12:37:13.445Z,1.23
2022-10-22T12:38:17.226Z,1.40
2022-10-22T12:39:20.723Z,1.23
2022-10-22T12:40:24.290Z,1.10
2022-10-22T12:41:31.203Z,1.10
2022-10-22T12:42:32.636Z,0.80
2022-10-22T12:43:34.076Z,1.20
2022-10-22T12:44:35.483Z,0.95
2022-10-22T12:45:37.711Z,1.30
2022-10-22T12:46:39.564Z,1.27
2022-10-22T12:47:45.895Z,1.10
2022-10-22T12:48:47.389Z,1.13
2022-10-22T12:49:50.389Z,1.30
2022-10-22T12:50:54.112Z,1.45
2022-10-22T12:51:55.626Z,1.30
2022-10-22T12:52:58.886Z,1.20
2022-10-22T12:54:06.339Z,1.20
2022-10-22T12:55:08.437Z,1.35
2022-10-22T12:56:12.824Z,1.58
2022-10-22T12:57:16.970Z,1.33
2022-10-22T12:58:21.137Z,1.23
2022-10-22T12:59:25.116Z,1.48
2022-10-22T13:00:32.227Z,1.42
2022-10-22T13:01:36.970Z,1.10
2022-10-22T13:02:38.558Z,1.40
2022-10-22T13:03:42.524Z,1.25
2022-10-22T13:05:13.679Z,1.30
2022-10-22T13:06:24.342Z,1.50
2022-10-22T13:07:25.777Z,1.33
2022-10-22T13:08:28.047Z,1.25
2022-10-22T13:09:38.586Z,1.50
2022-10-22T13:10:41.576Z,1.75
2022-10-22T13:11:50.909Z,1.60
2022-10-22T13:12:55.784Z,1.35
2022-10-22T13:14:02.477Z,1.30
2022-10-22T13:15:20.474Z,1.45
2022-10-22T13:16:23.569Z,1.63
2022-10-22T13:17:40.222Z,1.20
2022-10-22T13:18:42.413Z,1.40
2022-10-22T13:19:48.283Z,1.67
2022-10-22T13:20:53.280Z,1.50
2022-10-22T13:21:54.694Z,1.75
2022-10-22T13:22:57.191Z,1.67
2022-10-22T13:24:00.432Z,1.92
2022-10-22T13:25:20.985Z,1.95
2022-10-22T13:26:24.690Z,1.90
2022-10-22T13:27:27.545Z,2.10
2022-10-22T13:28:30.444Z,2.10
2022-10-22T13:29:31.919Z,2.35
2022-10-22T13:30:35.255Z,2.38
2022-10-22T13:31:37.045Z,2.00
2022-10-22T13:32:38.517Z,2.25
2022-10-22T13:33:43.073Z,2.20
2022-10-22T13:34:44.603Z,2.10
2022-10-22T13:35:46.055Z,1.85
2022-10-22T13:36:49.264Z,2.33
2022-10-22T13:37:51.040Z,1.92
2022-10-22T13:38:52.460Z,1.80
2022-10-22T13:39:53.964Z,1.60
2022-10-22T13:40:56.404Z,1.58
2022-10-22T13:41:57.853Z,1.38
2022-10-22T13:42:59.268Z,1.40
2022-10-22T13:44:00.679Z,1.67
2022-10-22T13:45:02.122Z,1.30
2022-10-22T13:46:05.733Z,1.27
2022-10-22T13:47:19.424Z,1.42
2022-10-22T13:48:23.273Z,1.40
2022-10-22T13:49:24.694Z,1.83
2022-10-22T13:50:26.152Z,1.38
2022-10-22T13:51:31.817Z,1.48
2022-10-22T13:52:40.387Z,1.10
2022-10-22T13:53:43.660Z,1.30
2022-10-22T13:54:45.057Z,1.30
2022-10-22T13:55:46.693Z,1.48
2022-10-22T13:56:48.520Z,1.25
2022-10-22T13:57:49.964Z,1.35
2022-10-22T13:58:51.695Z,1.30
2022-10-22T13:59:53.116Z,1.27
2022-10-22T14:00:57.644Z,1.20
2022-10-22T14:01:59.286Z,1.08
2022-10-22T14:03:00.779Z,1.70
2022-10-22T14:04:05.016Z,1.40
2022-10-22T14:05:07.040Z,1.10
2022-10-22T14:06:13.875Z,1.42
2022-10-22T14:07:16.398Z,1.50
2022-10-22T14:08:21.722Z,1.30
2022-10-22T14:09:23.164Z,1.02
2022-10-22T14:10:24.804Z,1.10
2022-10-22T14:11:27.176Z,1.50
2022-10-22T14:12:28.589Z,1.63
2022-10-22T14:13:30.028Z,1.70
2022-10-22T14:14:31.442Z,1.33
2022-10-22T14:15:33.752Z,1.48
2022-10-22T14:16:36.898Z,1.05
2022-10-22T14:17:38.648Z,1.50
2022-10-22T14:18:41.119Z,1.50
2022-10-22T14:19:44.956Z,1.33
2022-10-22T14:20:46.385Z,1.42
2022-10-22T14:21:47.900Z,1.30
2022-10-22T14:22:50.453Z,1.75
2022-10-22T14:23:53.257Z,1.30
2022-10-22T14:24:54.706Z,1.70